createdAt,value
2022-08-05T00:02:07.616Z,40.60
2022-08-05T00:04:55.300Z,40.97
2022-08-05T00:08:00.014Z,40.77
2022-08-05T00:10:46.426Z,40.29
2022-08-05T00:13:39.478Z,40.53
2022-08-05T00:16:36.264Z,40.49
2022-08-05T00:19:33.746Z,40.42
2022-08-05T00:22:31.296Z,41.14
2022-08-05T00:25:16.593Z,41.19
2022-08-05T00:28:03.205Z,40.89
2022-08-05T00:30:52.123Z,41.21
2022-08-05T00:34:54.967Z,40.87
2022-08-05T00:37:10.483Z,40.30
2022-08-05T00:39:57.391Z,40.64
2022-08-05T00:42:48.231Z,40.56
2022-08-05T00:45:38.628Z,40.47
2022-08-05T00:48:31.411Z,40.93
2022-08-05T00:51:51.031Z,41.04
2022-08-05T00:54:22.222Z,40.93
2022-08-05T00:57:13.047Z,41.13
2022-08-05T00:59:58.542Z,41.41
2022-08-05T01:02:43.981Z,41.57
2022-08-05T01:05:29.323Z,41.38
2022-08-05T01:08:30.758Z,41.67
2022-08-05T01:11:37.016Z,41.77
2022-08-05T01:14:40.582Z,41.79
2022-08-05T01:17:47.163Z,42.27
2022-08-05T01:21:22.811Z,44.58
2022-08-05T01:24:36.038Z,46.23
2022-08-05T01:27:50.608Z,47.04
2022-08-05T01:30:53.551Z,48.23
2022-08-05T01:33:49.291Z,48.75
2022-08-05T01:36:47.092Z,49.40
2022-08-05T01:39:46.030Z,50.59
2022-08-05T01:42:34.659Z,49.90
2022-08-05T01:45:22.030Z,51.22
2022-08-05T01:48:10.303Z,51.21
2022-08-05T01:50:57.660Z,51.56
2022-08-05T01:53:57.161Z,52.08
2022-08-05T01:58:09.846Z,52.12
2022-08-05T01:59:52.613Z,52.08
2022-08-05T02:02:46.484Z,52.65
2022-08-05T02:05:40.558Z,53.83
2022-08-05T02:08:30.787Z,54.74
2022-08-05T02:11:23.696Z,55.38
2022-08-05T02:14:38.286Z,55.04
2022-08-05T02:18:33.037Z,55.52
2022-08-05T02:21:05.783Z,56.36
2022-08-05T02:24:07.013Z,56.15
2022-08-05T02:27:00.322Z,56.42
2022-08-05T02:30:00.086Z,56.75
2022-08-05T02:32:55.518Z,56.82
2022-08-05T02:35:49.129Z,57.13
2022-08-05T02:38:52.897Z,57.13
2022-08-05T02:41:57.836Z,57.27
2022-08-05T02:44:47.400Z,58.04
2022-08-05T02:47:36.505Z,57.89
2022-08-05T02:50:47.034Z,58.64
2022-08-05T02:53:39.406Z,59.08
2022-08-05T02:56:27.454Z,59.27
2022-08-05T02:59:14.771Z,59.29
2022-08-05T03:02:02.027Z,59.80
2022-08-05T03:04:53.224Z,59.90
2022-08-05T03:07:59.481Z,60.05
2022-08-05T03:11:53.288Z,60.09
2022-08-05T03:14:02.649Z,60.13
2022-08-05T03:16:48.731Z,60.15
2022-08-05T03:19:36.965Z,60.27
2022-08-05T03:22:31.901Z,60.41
2022-08-05T03:25:33.475Z,60.46
2022-08-05T03:28:25.502Z,60.61
2022-08-05T03:31:18.241Z,60.69
2022-08-05T03:34:17.998Z,60.90
2022-08-05T03:37:05.632Z,60.62
2022-08-05T03:40:01.699Z,60.30
2022-08-05T03:42:52.532Z,60.00
2022-08-05T03:45:57.884Z,60.03
2022-08-05T03:48:45.372Z,59.53
2022-08-05T03:52:48.882Z,59.44
2022-08-05T03:56:05.199Z,59.34
2022-08-05T03:58:17.827Z,59.85
2022-08-05T04:01:06.828Z,59.92
2022-08-05T04:04:09.040Z,60.00
2022-08-05T04:06:56.021Z,60.39
2022-08-05T04:09:53.159Z,60.55
2022-08-05T04:15:24.533Z,60.69
2022-08-05T04:18:12.734Z,60.18
2022-08-05T04:21:07.830Z,60.04
2022-08-05T04:24:06.733Z,60.46
2022-08-05T04:26:54.440Z,60.73
2022-08-05T04:29:43.139Z,60.72
2022-08-05T04:32:31.292Z,60.77
2022-08-05T04:35:19.831Z,60.81
2022-08-05T04:38:06.612Z,60.80
2022-08-05T04:40:52.232Z,60.94
2022-08-05T04:43:46.586Z,60.69
2022-08-05T04:46:33.728Z,60.72
2022-08-05T04:49:19.232Z,61.03
2022-08-05T04:52:10.263Z,61.04
2022-08-05T04:54:57.909Z,61.20
2022-08-05T04:57:47.716Z,60.40
2022-08-05T05:00:34.218Z,59.52
2022-08-05T05:03:20.435Z,59.59
2022-08-05T05:06:39.418Z,59.20
2022-08-05T05:09:14.251Z,59.28
2022-08-05T05:12:03.385Z,59.28
2022-08-05T05:14:49.278Z,59.52
2022-08-05T05:17:56.988Z,59.91
2022-08-05T05:20:44.552Z,60.40
2022-08-05T05:23:39.000Z,60.41
2022-08-05T05:26:37.070Z,60.71
2022-08-05T05:30:04.651Z,60.48
2022-08-05T05:32:31.393Z,60.23
2022-08-05T05:35:20.018Z,59.73
2022-08-05T05:38:09.181Z,59.28
2022-08-05T05:40:58.288Z,58.68
2022-08-05T05:43:58.419Z,58.60
2022-08-05T05:46:45.829Z,58.63
2022-08-05T05:49:33.811Z,58.85
2022-08-05T05:52:25.468Z,58.16
2022-08-05T05:55:14.663Z,58.07
2022-08-05T05:58:02.001Z,57.92
2022-08-05T06:00:49.737Z,57.65
2022-08-05T06:03:53.649Z,57.47
2022-08-05T06:06:47.788Z,58.41
2022-08-05T06:09:52.701Z,58.21
2022-08-05T06:12:42.270Z,58.08
2022-08-05T06:16:30.696Z,57.87
2022-08-05T06:18:33.292Z,58.79
2022-08-05T06:21:24.496Z,59.04
2022-08-05T06:24:25.828Z,59.67
2022-08-05T06:28:09.469Z,60.24
2022-08-05T06:30:21.220Z,60.45
2022-08-05T06:33:09.873Z,60.84
2022-08-05T06:36:03.944Z,60.68
2022-08-05T06:38:55.294Z,59.84
2022-08-05T06:41:40.565Z,59.71
2022-08-05T06:44:27.120Z,59.34
2022-08-05T06:48:11.435Z,59.93
2022-08-05T06:50:18.023Z,60.94
2022-08-05T06:53:11.416Z,61.03
2022-08-05T06:55:59.678Z,61.22
2022-08-05T06:58:46.787Z,61.47
2022-08-05T07:01:32.936Z,60.50
2022-08-05T07:04:19.238Z,59.49
2022-08-05T07:07:08.087Z,59.11
2022-08-05T07:09:55.382Z,58.81
2022-08-05T07:13:02.641Z,58.22
2022-08-05T07:16:06.293Z,57.27
2022-08-05T07:18:57.569Z,57.41
2022-08-05T07:22:00.181Z,57.19
2022-08-05T07:24:52.680Z,56.76
2022-08-05T07:27:59.503Z,57.11
2022-08-05T07:30:44.486Z,57.19
2022-08-05T07:33:37.505Z,58.44
2022-08-05T07:36:23.500Z,58.35
2022-08-05T07:39:50.332Z,59.07
2022-08-05T07:42:16.261Z,59.02
2022-08-05T07:45:02.079Z,59.98
2022-08-05T07:47:48.328Z,60.27
2022-08-05T07:50:41.183Z,60.60
2022-08-05T07:53:36.936Z,61.66
2022-08-05T07:57:02.578Z,62.18
2022-08-05T07:59:40.990Z,62.52
2022-08-05T08:02:31.417Z,62.90
2022-08-05T08:05:33.690Z,62.34
2022-08-05T08:08:26.062Z,63.07
2022-08-05T08:11:13.780Z,63.91
2022-08-05T08:14:01.764Z,64.63
2022-08-05T08:16:51.262Z,65.22
2022-08-05T08:20:10.700Z,64.64
2022-08-05T08:22:54.294Z,63.72
2022-08-05T08:26:00.373Z,63.55
2022-08-05T08:28:59.120Z,63.09
2022-08-05T08:31:48.614Z,62.17
2022-08-05T08:34:34.623Z,61.97
2022-08-05T08:37:19.791Z,63.37
2022-08-05T08:40:13.390Z,61.09
2022-08-05T08:45:17.109Z,60.29
2022-08-05T08:46:06.714Z,60.46
2022-08-05T08:50:07.645Z,60.84
2022-08-05T08:52:32.080Z,60.85
2022-08-05T08:56:03.384Z,61.59
2022-08-05T08:58:49.639Z,62.30
2022-08-05T09:01:42.941Z,61.74
2022-08-05T09:04:58.224Z,63.13
2022-08-05T09:07:57.293Z,63.74
2022-08-05T09:10:47.206Z,64.03
2022-08-05T09:14:00.613Z,62.92
2022-08-05T09:16:48.736Z,62.72
2022-08-05T09:19:36.290Z,62.20
2022-08-05T09:23:09.263Z,61.96
2022-08-05T09:26:15.922Z,61.32
2022-08-05T09:29:09.837Z,61.53
2022-08-05T09:32:42.706Z,62.42
2022-08-05T09:35:26.340Z,63.24
2022-08-05T09:38:18.001Z,62.57
2022-08-05T09:41:12.345Z,62.51
2022-08-05T09:44:01.747Z,62.15
2022-08-05T09:46:53.528Z,60.90
2022-08-05T09:50:04.881Z,60.88
2022-08-05T09:53:03.680Z,60.94
2022-08-05T09:55:59.555Z,61.05
2022-08-05T09:59:17.304Z,62.18
2022-08-05T10:02:02.995Z,64.59
2022-08-05T10:04:49.020Z,65.35
2022-08-05T10:10:58.759Z,65.25
2022-08-05T10:13:54.568Z,64.72
2022-08-05T10:16:52.274Z,63.97
2022-08-05T10:20:04.149Z,62.49
2022-08-05T10:22:51.268Z,62.30
2022-08-05T10:25:37.966Z,61.70
2022-08-05T10:28:29.708Z,61.51
2022-08-05T10:32:52.798Z,62.21
2022-08-05T10:34:30.080Z,62.80
2022-08-05T10:37:19.085Z,62.70
2022-08-05T10:40:43.457Z,63.10
2022-08-05T10:43:40.009Z,63.54
2022-08-05T10:46:45.353Z,63.08
2022-08-05T10:49:33.195Z,62.65
2022-08-05T10:52:49.481Z,63.02
2022-08-05T10:56:04.927Z,63.15
2022-08-05T10:58:56.553Z,63.02
2022-08-05T11:02:14.182Z,62.76
2022-08-05T11:05:18.197Z,61.96
2022-08-05T11:08:33.709Z,61.17
2022-08-05T11:11:44.439Z,61.61
2022-08-05T11:17:59.813Z,59.13
2022-08-05T11:20:53.342Z,59.30
2022-08-05T11:24:05.129Z,58.08
2022-08-05T11:26:43.346Z,58.49
2022-08-05T11:29:41.069Z,58.71
2022-08-05T11:32:35.495Z,57.42
2022-08-05T11:36:08.068Z,56.74
2022-08-05T11:38:57.739Z,56.67
2022-08-05T11:42:01.979Z,56.12
2022-08-05T11:44:58.314Z,56.09
2022-08-05T11:47:50.409Z,56.49
2022-08-05T11:50:48.067Z,54.90
2022-08-05T11:53:41.070Z,54.74
2022-08-05T11:56:52.275Z,54.54
2022-08-05T11:59:41.392Z,54.70
2022-08-05T12:02:40.195Z,54.07
2022-08-05T12:05:36.087Z,53.41
2022-08-05T12:08:32.949Z,52.66
2022-08-05T12:11:28.256Z,52.99
2022-08-05T12:14:36.463Z,52.62
2022-08-05T12:18:03.596Z,52.13
2022-08-05T12:20:48.737Z,51.93
2022-08-05T12:23:34.828Z,51.49
2022-08-05T12:26:36.695Z,50.98
2022-08-05T12:29:24.752Z,50.86
2022-08-05T12:32:10.114Z,50.86
2022-08-05T12:34:55.724Z,50.20
2022-08-05T12:37:42.794Z,50.57
2022-08-05T12:40:29.763Z,49.77
2022-08-05T12:43:20.557Z,49.33
2022-08-05T12:46:06.923Z,48.45
2022-08-05T12:49:14.402Z,49.22
2022-08-05T12:52:10.224Z,50.48
2022-08-05T12:54:57.619Z,50.56
2022-08-05T12:58:38.469Z,50.27
2022-08-05T13:02:00.105Z,49.99
2022-08-05T13:03:56.252Z,49.26
2022-08-05T13:06:44.836Z,49.05
2022-08-05T13:09:37.419Z,49.52
2022-08-05T13:12:28.423Z,47.69
2022-08-05T13:15:16.471Z,47.60
2022-08-05T13:18:10.330Z,47.00
2022-08-05T13:20:55.776Z,48.36
2022-08-05T13:23:50.607Z,47.25
2022-08-05T13:26:36.489Z,46.88
2022-08-05T13:29:37.822Z,47.25
2022-08-05T13:32:29.239Z,46.83
2022-08-05T13:38:30.838Z,46.98
2022-08-05T13:41:19.538Z,46.85
2022-08-05T13:44:10.033Z,47.68
2022-08-05T13:47:05.172Z,48.25
2022-08-05T13:50:01.066Z,48.78
2022-08-05T13:52:54.072Z,48.02
2022-08-05T13:55:50.195Z,48.06
2022-08-05T13:58:52.922Z,48.31
2022-08-05T14:01:46.488Z,47.37
2022-08-05T14:05:03.689Z,47.40
2022-08-05T14:08:00.328Z,48.16
2022-08-05T14:10:52.540Z,47.77
2022-08-05T14:13:48.128Z,47.28
2022-08-05T14:16:34.372Z,47.67
2022-08-05T14:19:20.416Z,48.15
2022-08-05T14:22:12.200Z,48.46
2022-08-05T14:24:58.067Z,48.61
2022-08-05T14:27:47.260Z,50.92
2022-08-05T14:30:33.216Z,51.27
2022-08-05T14:33:22.748Z,50.69
2022-08-05T14:36:08.621Z,50.47
2022-08-05T14:38:54.045Z,50.84
2022-08-05T14:41:42.878Z,51.50
2022-08-05T14:44:45.792Z,51.85
2022-08-05T14:48:05.259Z,52.15
2022-08-05T14:50:40.802Z,52.14
2022-08-05T14:53:26.565Z,52.10
2022-08-05T14:56:16.203Z,52.40
2022-08-05T14:59:08.276Z,52.71
2022-08-05T15:01:54.525Z,54.83
2022-08-05T15:04:47.927Z,54.97
2022-08-05T15:08:11.327Z,55.03
2022-08-05T15:10:43.249Z,55.15
2022-08-05T15:13:45.762Z,55.55
2022-08-05T15:16:32.266Z,55.51
2022-08-05T15:19:23.410Z,56.79
2022-08-05T15:22:09.353Z,57.15
2022-08-05T15:24:56.182Z,57.78
2022-08-05T15:27:42.900Z,57.91
2022-08-05T15:30:37.500Z,58.33
2022-08-05T15:33:56.488Z,58.35
2022-08-05T15:36:29.835Z,59.13
2022-08-05T15:41:03.936Z,59.33
2022-08-05T15:42:53.727Z,60.53
2022-08-05T15:45:38.825Z,60.44
2022-08-05T15:48:27.036Z,61.04
2022-08-05T15:51:12.817Z,60.63
2022-08-05T15:53:59.052Z,60.82
2022-08-05T15:56:46.162Z,60.41
2022-08-05T15:59:35.041Z,60.24
2022-08-05T16:02:25.514Z,60.71
2022-08-05T16:05:12.875Z,60.87
2022-08-05T16:07:58.673Z,60.70
2022-08-05T16:10:48.712Z,61.34
2022-08-05T16:13:35.101Z,61.84
2022-08-05T16:16:21.226Z,62.39
2022-08-05T16:19:25.895Z,62.09
2022-08-05T16:22:27.391Z,62.38
2022-08-05T16:25:18.952Z,61.98
2022-08-05T16:28:17.164Z,61.91
2022-08-05T16:31:03.599Z,61.20
2022-08-05T16:33:54.109Z,60.79
2022-08-05T16:36:43.478Z,60.86
2022-08-05T16:40:06.047Z,62.49
2022-08-05T16:42:36.213Z,62.72
2022-08-05T16:46:04.466Z,63.70
2022-08-05T16:48:35.068Z,63.94
2022-08-05T16:51:42.785Z,64.81
2022-08-05T16:54:58.507Z,66.26
2022-08-05T16:58:03.379Z,67.69
2022-08-05T17:00:54.240Z,67.20
2022-08-05T17:03:51.722Z,66.72
2022-08-05T17:06:37.159Z,67.18
2022-08-05T17:09:57.241Z,68.99
2022-08-05T17:12:51.614Z,68.80
2022-08-05T17:15:48.524Z,69.06
2022-08-05T17:18:36.793Z,69.10
2022-08-05T17:21:24.611Z,68.92
2022-08-05T17:24:30.168Z,69.61
2022-08-05T17:27:16.509Z,68.98
2022-08-05T17:30:12.151Z,68.62
2022-08-05T17:33:04.947Z,68.49
2022-08-05T17:36:09.041Z,68.43
2022-08-05T17:38:58.679Z,68.07
2022-08-05T17:42:17.268Z,67.99
2022-08-05T17:44:54.721Z,66.84
2022-08-05T17:47:43.427Z,67.24
2022-08-05T17:50:30.515Z,67.76
2022-08-05T17:53:17.037Z,68.69
2022-08-05T17:56:06.658Z,70.35
2022-08-05T17:58:52.984Z,70.99
2022-08-05T18:05:16.672Z,72.89
2022-08-05T18:08:02.644Z,72.63
2022-08-05T18:10:48.911Z,72.73
2022-08-05T18:13:36.653Z,71.16
2022-08-05T18:16:29.168Z,70.98
2022-08-05T18:19:14.315Z,70.55
2022-08-05T18:22:08.226Z,70.14
2022-08-05T18:24:56.708Z,68.36
2022-08-05T18:27:41.935Z,68.06
2022-08-05T18:30:39.007Z,67.30
2022-08-05T18:33:25.373Z,67.56
2022-08-05T18:36:15.663Z,68.19
2022-08-05T18:39:01.995Z,67.29
2022-08-05T18:41:53.445Z,67.63
2022-08-05T18:44:49.208Z,68.00
2022-08-05T18:47:41.880Z,68.25
2022-08-05T18:50:48.601Z,68.56
2022-08-05T18:53:34.732Z,67.57
2022-08-05T18:56:28.800Z,67.43
2022-08-05T18:59:44.356Z,67.32
2022-08-05T19:02:27.747Z,65.63
2022-08-05T19:06:13.416Z,65.70
2022-08-05T19:08:19.892Z,63.95
2022-08-05T19:11:07.389Z,64.25
2022-08-05T19:14:01.820Z,62.24
2022-08-05T19:16:56.828Z,62.17
2022-08-05T19:19:47.065Z,62.42
2022-08-05T19:22:34.083Z,60.33
2022-08-05T19:25:29.820Z,59.32
2022-08-05T19:28:15.396Z,57.85
2022-08-05T19:31:01.066Z,57.58
2022-08-05T19:33:56.398Z,57.83
2022-08-05T19:36:42.563Z,57.53
2022-08-05T19:39:29.952Z,57.73
2022-08-05T19:42:17.824Z,57.70
2022-08-05T19:45:05.851Z,57.44
2022-08-05T19:47:51.410Z,58.39
2022-08-05T19:50:40.999Z,58.42
2022-08-05T19:54:04.653Z,58.24
2022-08-05T19:56:34.485Z,58.31
2022-08-05T19:59:54.773Z,58.94
2022-08-05T20:02:26.305Z,59.08
2022-08-05T20:05:16.514Z,59.30
2022-08-05T20:08:09.489Z,59.44
2022-08-05T20:10:55.284Z,59.76
2022-08-05T20:13:58.525Z,60.36
2022-08-05T20:16:46.858Z,60.21
2022-08-05T20:19:36.358Z,61.17
2022-08-05T20:22:27.675Z,60.30
2022-08-05T20:25:13.007Z,60.97
2022-08-05T20:27:58.701Z,61.19
2022-08-05T20:30:44.837Z,61.18
2022-08-05T20:33:30.987Z,61.21
2022-08-05T20:36:17.994Z,61.61
2022-08-05T20:39:03.934Z,61.29
2022-08-05T20:41:51.425Z,61.41
2022-08-05T20:44:37.794Z,61.03
2022-08-05T20:47:32.123Z,61.29
2022-08-05T20:50:17.733Z,61.42
2022-08-05T20:53:03.341Z,61.38
2022-08-05T20:55:55.148Z,61.35
2022-08-05T20:58:53.348Z,61.67
2022-08-05T21:01:39.126Z,61.85
2022-08-05T21:04:26.863Z,62.22
2022-08-05T21:07:12.384Z,62.60
2022-08-05T21:09:58.040Z,62.62
2022-08-05T21:12:58.060Z,62.91
2022-08-05T21:15:51.045Z,63.31
2022-08-05T21:18:36.442Z,63.58
2022-08-05T21:21:24.520Z,63.87
2022-08-05T21:24:09.920Z,64.06
2022-08-05T21:26:58.980Z,64.11
2022-08-05T21:29:48.408Z,64.10
2022-08-05T21:32:36.419Z,64.48
2022-08-05T21:35:29.997Z,65.09
2022-08-05T21:38:28.948Z,65.70
2022-08-05T21:41:14.775Z,66.46
2022-08-05T21:44:06.027Z,66.67
2022-08-05T21:46:51.228Z,66.74
2022-08-05T21:49:48.205Z,67.08
2022-08-05T21:52:47.220Z,66.79
2022-08-05T21:56:00.926Z,67.29
2022-08-05T21:58:42.102Z,67.47
2022-08-05T22:01:27.891Z,67.91
2022-08-05T22:04:25.428Z,68.04
2022-08-05T22:07:10.993Z,68.11
2022-08-05T22:09:57.214Z,68.28
2022-08-05T22:12:44.763Z,68.28
2022-08-05T22:16:01.748Z,68.49
2022-08-05T22:18:41.460Z,68.49
2022-08-05T22:21:34.864Z,68.30
2022-08-05T22:24:40.622Z,68.14
2022-08-05T22:28:11.309Z,68.54
2022-08-05T22:30:55.819Z,68.86
2022-08-05T22:33:58.407Z,68.53
2022-08-05T22:36:46.613Z,68.75
2022-08-05T22:39:34.513Z,68.50
2022-08-05T22:42:25.458Z,67.89
2022-08-05T22:45:12.372Z,67.75
2022-08-05T22:47:58.385Z,67.34
2022-08-05T22:50:46.084Z,66.14
2022-08-05T22:53:41.365Z,66.50
2022-08-05T22:56:30.721Z,66.40
2022-08-05T22:59:46.423Z,66.39
2022-08-05T23:02:29.690Z,66.69
2022-08-05T23:05:15.779Z,66.52
2022-08-05T23:08:00.891Z,63.05
2022-08-05T23:10:46.288Z,63.44
2022-08-05T23:13:31.597Z,63.28
2022-08-05T23:16:39.798Z,62.46
2022-08-05T23:19:29.218Z,61.27
2022-08-05T23:22:27.753Z,61.78
2022-08-05T23:25:13.239Z,61.82
2022-08-05T23:28:02.849Z,61.95
2022-08-05T23:30:53.196Z,62.15
2022-08-05T23:34:02.993Z,62.16
2022-08-05T23:36:44.685Z,62.46
2022-08-05T23:39:44.624Z,62.77
2022-08-05T23:42:37.274Z,63.40
2022-08-05T23:45:23.694Z,63.40
2022-08-05T23:48:09.333Z,63.88
2022-08-05T23:50:54.832Z,63.62
2022-08-05T23:53:46.776Z,63.52
2022-08-05T23:56:32.575Z,64.26
2022-08-05T23:59:19.611Z,64.16
